createdAt,value
2022-12-31T00:00:13.298Z,1
2022-12-31T00:01:13.366Z,2
2022-12-31T00:02:13.413Z,2
2022-12-31T00:03:13.408Z,1
2022-12-31T00:04:13.279Z,1
2022-12-31T00:05:13.278Z,1
2022-12-31T00:06:13.279Z,1
2022-12-31T00:07:13.295Z,1
2022-12-31T00:08:13.297Z,1
2022-12-31T00:09:13.283Z,1
2022-12-31T00:10:13.297Z,1
2022-12-31T00:11:13.400Z,1
2022-12-31T00:12:13.290Z,1
2022-12-31T00:13:13.287Z,2
2022-12-31T00:14:13.314Z,1
2022-12-31T00:15:13.297Z,1
2022-12-31T00:16:13.301Z,1
2022-12-31T00:17:13.382Z,1
2022-12-31T00:18:13.289Z,0
2022-12-31T00:19:13.281Z,1
2022-12-31T00:20:13.304Z,1
2022-12-31T00:21:13.331Z,0
2022-12-31T00:22:13.336Z,1
2022-12-31T00:23:13.288Z,2
2022-12-31T00:24:13.288Z,3
2022-12-31T00:25:13.308Z,1
2022-12-31T00:26:13.434Z,1
2022-12-31T00:27:13.301Z,2
2022-12-31T00:28:13.287Z,2
2022-12-31T00:29:13.306Z,1
2022-12-31T00:30:13.291Z,1
2022-12-31T00:31:13.331Z,1
2022-12-31T00:32:13.300Z,1
2022-12-31T00:33:13.295Z,1
2022-12-31T00:34:13.290Z,0
2022-12-31T00:35:13.282Z,0
2022-12-31T00:36:13.382Z,1
2022-12-31T00:37:13.278Z,0
2022-12-31T00:38:29.456Z,1
2022-12-31T00:39:13.279Z,1
2022-12-31T00:40:13.294Z,1
2022-12-31T00:41:13.303Z,0
2022-12-31T00:42:13.297Z,1
2022-12-31T00:43:13.303Z,0
2022-12-31T00:44:13.277Z,1
2022-12-31T00:45:13.334Z,1
2022-12-31T00:46:13.357Z,1
2022-12-31T00:47:13.313Z,2
2022-12-31T00:48:13.295Z,1
2022-12-31T00:49:13.286Z,0
2022-12-31T00:50:13.291Z,0
2022-12-31T00:51:13.307Z,1
2022-12-31T00:52:13.335Z,0
2022-12-31T00:53:13.288Z,1
2022-12-31T00:54:13.284Z,0
2022-12-31T00:55:13.299Z,1
2022-12-31T00:56:13.309Z,0
2022-12-31T00:57:13.293Z,0
2022-12-31T00:58:13.296Z,0
2022-12-31T00:59:13.303Z,1
2022-12-31T01:00:13.279Z,0
2022-12-31T01:01:13.466Z,0
2022-12-31T01:02:13.581Z,0
2022-12-31T01:03:13.377Z,1
2022-12-31T01:05:13.287Z,0
2022-12-31T01:06:13.313Z,1
2022-12-31T01:07:13.299Z,0
2022-12-31T01:08:13.340Z,0
2022-12-31T01:09:13.301Z,0
2022-12-31T01:10:13.277Z,1
2022-12-31T01:11:13.423Z,1
2022-12-31T01:12:13.289Z,0
2022-12-31T01:13:13.294Z,0
2022-12-31T01:14:13.286Z,0
2022-12-31T01:15:13.312Z,0
2022-12-31T01:16:13.436Z,1
2022-12-31T01:17:13.324Z,1
2022-12-31T01:18:13.298Z,0
2022-12-31T01:19:13.307Z,0
2022-12-31T01:20:13.317Z,0
2022-12-31T01:21:13.308Z,1
2022-12-31T01:22:13.315Z,0
2022-12-31T01:23:13.338Z,0
2022-12-31T01:24:13.313Z,0
2022-12-31T01:25:13.286Z,0
2022-12-31T01:26:13.313Z,0
2022-12-31T01:27:13.294Z,0
2022-12-31T01:28:13.291Z,0
2022-12-31T01:29:13.325Z,0
2022-12-31T01:30:13.308Z,0
2022-12-31T01:31:13.430Z,0
2022-12-31T01:32:13.329Z,0
2022-12-31T01:33:13.308Z,0
2022-12-31T01:34:13.291Z,1
2022-12-31T01:35:13.307Z,0
2022-12-31T01:36:13.318Z,0
2022-12-31T01:37:13.293Z,0
2022-12-31T01:38:35.551Z,0
2022-12-31T01:39:13.293Z,0
2022-12-31T01:40:13.286Z,0
2022-12-31T01:41:13.307Z,0
2022-12-31T01:42:13.300Z,0
2022-12-31T01:43:13.303Z,0
2022-12-31T01:44:13.348Z,0
2022-12-31T01:45:13.291Z,0
2022-12-31T01:46:13.347Z,0
2022-12-31T01:47:13.313Z,0
2022-12-31T01:48:13.289Z,0
2022-12-31T01:49:13.300Z,0
2022-12-31T01:50:13.346Z,0
2022-12-31T01:51:13.300Z,0
2022-12-31T01:52:13.345Z,0
2022-12-31T01:53:13.308Z,1
2022-12-31T01:54:13.307Z,0
2022-12-31T01:55:13.313Z,1
2022-12-31T01:56:13.622Z,0
2022-12-31T01:57:13.302Z,0
2022-12-31T01:58:13.294Z,0
2022-12-31T01:59:13.284Z,0
2022-12-31T02:00:13.281Z,0
2022-12-31T02:01:13.346Z,0
2022-12-31T02:02:13.335Z,0
2022-12-31T02:03:13.415Z,0
2022-12-31T02:04:13.311Z,0
2022-12-31T02:05:13.296Z,1
2022-12-31T02:06:13.352Z,0
2022-12-31T02:07:13.290Z,0
2022-12-31T02:08:13.297Z,0
2022-12-31T02:09:13.292Z,0
2022-12-31T02:10:13.336Z,1
2022-12-31T02:11:13.324Z,0
2022-12-31T02:12:13.323Z,0
2022-12-31T02:13:13.336Z,0
2022-12-31T02:14:13.303Z,2
2022-12-31T02:15:13.299Z,0
2022-12-31T02:16:13.374Z,0
2022-12-31T02:17:13.309Z,1
2022-12-31T02:18:13.308Z,0
2022-12-31T02:19:13.287Z,1
2022-12-31T02:20:13.320Z,0
2022-12-31T02:21:13.338Z,0
2022-12-31T02:22:13.335Z,0
2022-12-31T02:23:13.283Z,0
2022-12-31T02:24:13.308Z,0
2022-12-31T02:25:13.315Z,2
2022-12-31T02:26:13.314Z,0
2022-12-31T02:27:13.296Z,0
2022-12-31T02:28:13.321Z,0
2022-12-31T02:29:13.296Z,0
2022-12-31T02:30:13.315Z,1
2022-12-31T02:31:13.380Z,0
2022-12-31T02:32:13.320Z,0
2022-12-31T02:33:13.304Z,0
2022-12-31T02:34:13.310Z,0
2022-12-31T02:35:13.292Z,0
2022-12-31T02:36:13.323Z,0
2022-12-31T02:37:13.306Z,0
2022-12-31T02:39:13.291Z,0
2022-12-31T02:40:13.302Z,0
2022-12-31T02:41:13.294Z,1
2022-12-31T02:42:13.333Z,0
2022-12-31T02:43:13.327Z,0
2022-12-31T02:44:13.314Z,0
2022-12-31T02:45:13.296Z,1
2022-12-31T02:46:13.350Z,0
2022-12-31T02:47:13.352Z,0
2022-12-31T02:48:13.337Z,0
2022-12-31T02:49:13.313Z,0
2022-12-31T02:50:13.320Z,0
2022-12-31T02:51:13.293Z,0
2022-12-31T02:52:13.420Z,0
2022-12-31T02:53:13.295Z,0
2022-12-31T02:54:13.331Z,0
2022-12-31T02:55:13.324Z,0
2022-12-31T02:56:13.444Z,0
2022-12-31T02:57:13.327Z,0
2022-12-31T02:58:13.306Z,0
2022-12-31T02:59:13.356Z,0
2022-12-31T03:00:13.305Z,0
2022-12-31T03:01:13.385Z,0
2022-12-31T03:02:13.418Z,1
2022-12-31T03:03:13.310Z,1
2022-12-31T03:04:13.308Z,0
2022-12-31T03:05:13.303Z,0
2022-12-31T03:06:13.315Z,1
2022-12-31T03:07:13.310Z,0
2022-12-31T03:08:13.317Z,0
2022-12-31T03:09:13.291Z,0
2022-12-31T03:10:13.315Z,1
2022-12-31T03:11:13.430Z,0
2022-12-31T03:12:13.324Z,1
2022-12-31T03:13:13.294Z,0
2022-12-31T03:14:13.313Z,0
2022-12-31T03:15:13.302Z,0
2022-12-31T03:16:13.389Z,1
2022-12-31T03:17:13.345Z,1
2022-12-31T03:18:13.307Z,0
2022-12-31T03:19:13.321Z,0
2022-12-31T03:20:13.334Z,0
2022-12-31T03:21:13.316Z,0
2022-12-31T03:22:13.319Z,0
2022-12-31T03:23:13.299Z,0
2022-12-31T03:24:13.297Z,0
2022-12-31T03:25:13.306Z,0
2022-12-31T03:26:13.340Z,0
2022-12-31T03:27:13.336Z,0
2022-12-31T03:28:13.312Z,0
2022-12-31T03:29:13.317Z,0
2022-12-31T03:30:13.313Z,0
2022-12-31T03:31:13.334Z,0
2022-12-31T03:32:13.321Z,0
2022-12-31T03:33:13.308Z,1
2022-12-31T03:34:13.318Z,1
2022-12-31T03:35:13.311Z,0
2022-12-31T03:36:13.337Z,0
2022-12-31T03:37:13.302Z,0
2022-12-31T03:38:13.301Z,0
2022-12-31T03:39:13.307Z,0
2022-12-31T03:40:13.308Z,1
2022-12-31T03:41:13.454Z,3
2022-12-31T03:42:13.314Z,1
2022-12-31T03:43:13.313Z,0
2022-12-31T03:44:13.320Z,1
2022-12-31T03:45:13.322Z,0
2022-12-31T03:46:13.347Z,1
2022-12-31T03:47:13.359Z,0
2022-12-31T03:49:13.333Z,0
2022-12-31T03:50:13.426Z,0
2022-12-31T03:51:13.299Z,0
2022-12-31T03:52:13.327Z,1
2022-12-31T03:53:13.312Z,0
2022-12-31T03:54:13.326Z,0
2022-12-31T03:55:13.317Z,0
2022-12-31T03:56:13.315Z,0
2022-12-31T03:57:13.368Z,0
2022-12-31T03:58:13.372Z,1
2022-12-31T03:59:13.317Z,0
2022-12-31T04:00:13.528Z,0
2022-12-31T04:01:13.519Z,1
2022-12-31T04:02:13.523Z,0
2022-12-31T04:03:13.376Z,0
2022-12-31T04:04:13.336Z,1
2022-12-31T04:05:13.306Z,0
2022-12-31T04:06:13.309Z,0
2022-12-31T04:07:13.342Z,1
2022-12-31T04:08:13.303Z,0
2022-12-31T04:09:13.308Z,1
2022-12-31T04:10:13.313Z,0
2022-12-31T04:11:18.963Z,0
2022-12-31T04:12:13.345Z,0
2022-12-31T04:13:13.312Z,1
2022-12-31T04:14:13.311Z,0
2022-12-31T04:15:13.335Z,0
2022-12-31T04:16:13.401Z,0
2022-12-31T04:17:13.323Z,0
2022-12-31T04:18:13.401Z,0
2022-12-31T04:19:13.323Z,0
2022-12-31T04:20:13.328Z,0
2022-12-31T04:21:13.310Z,1
2022-12-31T04:22:13.352Z,1
2022-12-31T04:23:13.318Z,0
2022-12-31T04:24:13.329Z,0
2022-12-31T04:25:13.328Z,1
2022-12-31T04:26:13.317Z,0
2022-12-31T04:27:13.334Z,0
2022-12-31T04:28:13.322Z,1
2022-12-31T04:29:13.347Z,0
2022-12-31T04:30:13.325Z,2
2022-12-31T04:31:13.308Z,0
2022-12-31T04:32:13.359Z,0
2022-12-31T04:33:13.337Z,1
2022-12-31T04:34:13.321Z,1
2022-12-31T04:35:15.051Z,0
2022-12-31T04:36:13.325Z,0
2022-12-31T04:37:13.336Z,0
2022-12-31T04:38:13.316Z,0
2022-12-31T04:39:13.311Z,1
2022-12-31T04:40:13.319Z,0
2022-12-31T04:41:13.308Z,0
2022-12-31T04:42:13.353Z,0
2022-12-31T04:43:13.323Z,0
2022-12-31T04:44:13.335Z,1
2022-12-31T04:45:13.304Z,0
2022-12-31T04:46:13.388Z,0
2022-12-31T04:47:15.255Z,0
2022-12-31T04:48:13.315Z,0
2022-12-31T04:49:13.323Z,0
2022-12-31T04:50:13.320Z,1
2022-12-31T04:51:13.319Z,0
2022-12-31T04:52:13.337Z,1
2022-12-31T04:53:13.323Z,1
2022-12-31T04:54:13.332Z,1
2022-12-31T04:55:13.332Z,0
2022-12-31T04:56:13.321Z,0
2022-12-31T04:57:13.332Z,0
2022-12-31T04:58:13.318Z,1
2022-12-31T04:59:23.325Z,2
2022-12-31T05:00:13.320Z,0
2022-12-31T05:01:13.454Z,0
2022-12-31T05:02:13.491Z,1
2022-12-31T05:03:13.470Z,0
2022-12-31T05:04:13.321Z,1
2022-12-31T05:05:13.312Z,0
2022-12-31T05:06:13.331Z,0
2022-12-31T05:07:13.350Z,1
2022-12-31T05:08:13.356Z,0
2022-12-31T05:09:13.350Z,0
2022-12-31T05:10:13.308Z,0
2022-12-31T05:11:13.330Z,1
2022-12-31T05:12:13.340Z,1
2022-12-31T05:13:13.348Z,1
2022-12-31T05:14:13.325Z,1
2022-12-31T05:15:13.343Z,0
2022-12-31T05:16:13.367Z,1
2022-12-31T05:17:13.361Z,0
2022-12-31T05:18:13.335Z,1
2022-12-31T05:19:13.333Z,1
2022-12-31T05:20:13.352Z,0
2022-12-31T05:21:13.329Z,1
2022-12-31T05:22:13.327Z,0
2022-12-31T05:23:13.326Z,0
2022-12-31T05:24:13.430Z,1
2022-12-31T05:25:13.353Z,0
2022-12-31T05:26:13.340Z,2
2022-12-31T05:27:13.362Z,1
2022-12-31T05:28:13.324Z,1
2022-12-31T05:29:13.321Z,1
2022-12-31T05:30:13.326Z,1
2022-12-31T05:31:13.380Z,1
2022-12-31T05:32:13.340Z,1
2022-12-31T05:33:13.331Z,1
2022-12-31T05:34:13.321Z,1
2022-12-31T05:35:13.326Z,1
2022-12-31T05:36:13.338Z,1
2022-12-31T05:37:13.352Z,1
2022-12-31T05:38:13.365Z,2
2022-12-31T05:39:13.334Z,2
2022-12-31T05:40:13.388Z,1
2022-12-31T05:41:13.345Z,1
2022-12-31T05:42:13.364Z,1
2022-12-31T05:43:13.327Z,1
2022-12-31T05:44:13.322Z,1
2022-12-31T05:45:13.335Z,1
2022-12-31T05:46:13.391Z,1
2022-12-31T05:47:13.373Z,2
2022-12-31T05:48:13.409Z,2
2022-12-31T05:49:13.334Z,1
2022-12-31T05:50:13.344Z,0
2022-12-31T05:51:13.339Z,2
2022-12-31T05:52:13.365Z,2
2022-12-31T05:53:13.338Z,1
2022-12-31T05:54:13.332Z,2
2022-12-31T05:55:13.372Z,1
2022-12-31T05:56:13.323Z,1
2022-12-31T05:57:13.421Z,2
2022-12-31T05:58:13.336Z,2
2022-12-31T05:59:29.457Z,2
2022-12-31T06:00:13.347Z,2
2022-12-31T06:01:13.369Z,1
2022-12-31T06:02:13.538Z,1
2022-12-31T06:03:13.519Z,2
2022-12-31T06:04:13.354Z,1
2022-12-31T06:05:13.338Z,1
2022-12-31T06:06:13.349Z,2
2022-12-31T06:07:13.364Z,1
2022-12-31T06:08:13.323Z,2
2022-12-31T06:09:13.337Z,2
2022-12-31T06:10:13.336Z,1
2022-12-31T06:11:13.354Z,2
2022-12-31T06:12:13.354Z,2
2022-12-31T06:13:13.331Z,1
2022-12-31T06:14:13.338Z,1
2022-12-31T06:15:13.360Z,1
2022-12-31T06:16:13.387Z,1
2022-12-31T06:17:13.410Z,2
2022-12-31T06:18:13.337Z,1
2022-12-31T06:19:13.334Z,2
2022-12-31T06:20:13.699Z,1
2022-12-31T06:21:13.417Z,1
2022-12-31T06:22:13.370Z,1
2022-12-31T06:23:13.342Z,1
2022-12-31T06:24:13.331Z,1
2022-12-31T06:25:13.377Z,2
2022-12-31T06:26:13.325Z,2
2022-12-31T06:27:13.344Z,1
2022-12-31T06:28:20.183Z,1
2022-12-31T06:29:13.356Z,1
2022-12-31T06:30:13.347Z,2
2022-12-31T06:31:13.450Z,3
2022-12-31T06:32:13.384Z,2
2022-12-31T06:33:13.403Z,1
2022-12-31T06:34:13.343Z,2
2022-12-31T06:35:13.346Z,1
2022-12-31T06:36:13.335Z,1
2022-12-31T06:37:13.376Z,2
2022-12-31T06:38:13.337Z,1
2022-12-31T06:39:13.374Z,1
2022-12-31T06:40:13.339Z,2
2022-12-31T06:41:13.537Z,2
2022-12-31T06:42:13.376Z,2
2022-12-31T06:43:13.363Z,2
2022-12-31T06:44:13.340Z,3
2022-12-31T06:45:13.345Z,2
2022-12-31T06:46:13.458Z,1
2022-12-31T06:47:13.372Z,1
2022-12-31T06:48:13.370Z,1
2022-12-31T06:49:13.346Z,2
2022-12-31T06:50:13.379Z,1
2022-12-31T06:51:16.966Z,2
2022-12-31T06:52:13.352Z,1
2022-12-31T06:53:13.411Z,2
2022-12-31T06:54:13.353Z,3
2022-12-31T06:55:13.352Z,1
2022-12-31T06:56:13.344Z,1
2022-12-31T06:57:13.336Z,2
2022-12-31T06:58:13.358Z,1
2022-12-31T06:59:35.471Z,1
2022-12-31T07:00:13.352Z,2
2022-12-31T07:01:13.369Z,1
2022-12-31T07:02:13.378Z,3
2022-12-31T07:03:13.415Z,1
2022-12-31T07:04:13.367Z,2
2022-12-31T07:05:13.350Z,1
2022-12-31T07:06:13.354Z,2
2022-12-31T07:07:13.352Z,2
2022-12-31T07:08:13.365Z,2
2022-12-31T07:09:13.351Z,1
2022-12-31T07:10:13.339Z,1
2022-12-31T07:11:13.413Z,3
2022-12-31T07:12:13.336Z,1
2022-12-31T07:13:13.346Z,1
2022-12-31T07:14:13.341Z,2
2022-12-31T07:15:13.351Z,2
2022-12-31T07:16:13.457Z,3
2022-12-31T07:17:13.339Z,3
2022-12-31T07:18:13.380Z,2
2022-12-31T07:19:13.385Z,1
2022-12-31T07:20:13.368Z,1
2022-12-31T07:21:13.357Z,1
2022-12-31T07:22:13.348Z,1
2022-12-31T07:23:13.354Z,3
2022-12-31T07:24:13.359Z,2
2022-12-31T07:25:13.364Z,1
2022-12-31T07:26:13.339Z,2
2022-12-31T07:27:13.337Z,4
2022-12-31T07:28:13.371Z,2
2022-12-31T07:29:13.368Z,1
2022-12-31T07:30:13.385Z,2
2022-12-31T07:31:13.416Z,2
2022-12-31T07:32:13.349Z,3
2022-12-31T07:34:13.363Z,4
2022-12-31T07:35:13.338Z,4
2022-12-31T07:36:13.343Z,3
2022-12-31T07:37:13.346Z,3
2022-12-31T07:38:13.362Z,3
2022-12-31T07:39:13.425Z,1
2022-12-31T07:40:13.336Z,2
2022-12-31T07:41:13.498Z,2
2022-12-31T07:42:13.354Z,1
2022-12-31T07:44:13.348Z,2
2022-12-31T07:45:13.349Z,2
2022-12-31T07:46:13.423Z,1
2022-12-31T07:47:13.354Z,1
2022-12-31T07:48:13.366Z,4
2022-12-31T07:49:13.346Z,1
2022-12-31T07:50:13.375Z,2
2022-12-31T07:51:13.347Z,1
2022-12-31T07:52:13.357Z,2
2022-12-31T07:53:13.424Z,1
2022-12-31T07:54:14.328Z,1
2022-12-31T07:55:13.375Z,2
2022-12-31T07:56:13.350Z,2
2022-12-31T07:57:13.344Z,1
2022-12-31T07:58:13.355Z,3
2022-12-31T08:00:13.363Z,2
2022-12-31T08:01:13.525Z,6
2022-12-31T08:02:13.523Z,3
2022-12-31T08:03:13.370Z,3
2022-12-31T08:04:13.350Z,1
2022-12-31T08:05:13.343Z,1
2022-12-31T08:06:13.378Z,1
2022-12-31T08:07:13.373Z,2
2022-12-31T08:08:13.378Z,2
2022-12-31T08:09:13.630Z,2
2022-12-31T08:10:17.771Z,1
2022-12-31T08:11:13.516Z,1
2022-12-31T08:13:13.370Z,1
2022-12-31T08:14:13.355Z,1
2022-12-31T08:15:13.362Z,2
2022-12-31T08:16:13.444Z,2
2022-12-31T08:17:13.369Z,1
2022-12-31T08:18:13.383Z,2
2022-12-31T08:19:13.358Z,2
2022-12-31T08:20:13.362Z,2
2022-12-31T08:21:13.382Z,3
2022-12-31T08:22:13.357Z,2
2022-12-31T08:23:13.452Z,3
2022-12-31T08:24:13.367Z,2
2022-12-31T08:25:13.365Z,2
2022-12-31T08:26:13.360Z,3
2022-12-31T08:27:13.361Z,1
2022-12-31T08:28:13.395Z,2
2022-12-31T08:29:13.370Z,2
2022-12-31T08:30:13.350Z,1
2022-12-31T08:31:13.377Z,2
2022-12-31T08:32:13.360Z,2
2022-12-31T08:33:13.389Z,2
2022-12-31T08:34:13.381Z,2
2022-12-31T08:35:13.360Z,3
2022-12-31T08:36:13.361Z,2
2022-12-31T08:37:13.368Z,2
2022-12-31T08:38:13.373Z,2
2022-12-31T08:39:13.364Z,2
2022-12-31T08:40:13.366Z,2
2022-12-31T08:41:13.654Z,1
2022-12-31T08:42:13.375Z,3
2022-12-31T08:43:13.412Z,3
2022-12-31T08:44:13.375Z,2
2022-12-31T08:45:13.395Z,2
2022-12-31T08:46:13.407Z,1
2022-12-31T08:47:13.384Z,2
2022-12-31T08:48:13.389Z,3
2022-12-31T08:49:13.399Z,2
2022-12-31T08:50:13.389Z,2
2022-12-31T08:51:13.393Z,4
2022-12-31T08:52:13.398Z,2
2022-12-31T08:53:13.394Z,3
2022-12-31T08:54:13.374Z,3
2022-12-31T08:55:13.380Z,1
2022-12-31T08:56:13.601Z,2
2022-12-31T08:57:13.360Z,2
2022-12-31T08:58:13.424Z,1
2022-12-31T08:59:13.384Z,1
2022-12-31T09:00:13.361Z,3
2022-12-31T09:01:13.492Z,2
2022-12-31T09:02:13.417Z,1
2022-12-31T09:03:13.395Z,2
2022-12-31T09:04:13.403Z,5
2022-12-31T09:05:13.428Z,2
2022-12-31T09:06:13.374Z,2
2022-12-31T09:07:13.357Z,1
2022-12-31T09:08:13.380Z,2
2022-12-31T09:09:13.377Z,1
2022-12-31T09:10:13.366Z,2
2022-12-31T09:11:17.705Z,3
2022-12-31T09:12:13.429Z,2
2022-12-31T09:13:13.374Z,2
2022-12-31T09:14:13.367Z,1
2022-12-31T09:15:13.374Z,1
2022-12-31T09:16:13.386Z,2
2022-12-31T09:17:13.363Z,2
2022-12-31T09:18:13.402Z,2
2022-12-31T09:19:13.418Z,2
2022-12-31T09:20:13.393Z,3
2022-12-31T09:21:13.374Z,2
2022-12-31T09:22:13.395Z,1
2022-12-31T09:23:13.507Z,2
2022-12-31T09:24:13.382Z,2
2022-12-31T09:25:13.365Z,1
2022-12-31T09:26:13.378Z,2
2022-12-31T09:27:13.371Z,2
2022-12-31T09:28:13.381Z,2
2022-12-31T09:29:13.375Z,1
2022-12-31T09:30:13.380Z,2
2022-12-31T09:31:13.368Z,1
2022-12-31T09:32:13.379Z,2
2022-12-31T09:33:13.371Z,3
2022-12-31T09:34:13.372Z,2
2022-12-31T09:35:13.394Z,3
2022-12-31T09:36:13.364Z,4
2022-12-31T09:37:13.381Z,3
2022-12-31T09:38:13.372Z,3
2022-12-31T09:39:13.389Z,2
2022-12-31T09:40:13.383Z,2
2022-12-31T09:41:13.594Z,2
2022-12-31T09:42:13.369Z,2
2022-12-31T09:43:13.381Z,2
2022-12-31T09:44:13.359Z,1
2022-12-31T09:45:13.381Z,2
2022-12-31T09:46:13.416Z,3
2022-12-31T09:47:13.359Z,1
2022-12-31T09:48:13.416Z,2
2022-12-31T09:49:13.396Z,2
2022-12-31T09:50:13.383Z,2
2022-12-31T09:51:13.376Z,3
2022-12-31T09:52:13.389Z,2
2022-12-31T09:53:13.424Z,5
2022-12-31T09:54:13.414Z,2
2022-12-31T09:55:13.371Z,4
2022-12-31T09:56:13.426Z,2
2022-12-31T09:57:13.389Z,2
2022-12-31T09:58:13.396Z,2
2022-12-31T09:59:13.381Z,2
2022-12-31T10:00:13.389Z,2
2022-12-31T10:01:13.482Z,2
2022-12-31T10:02:13.550Z,3
2022-12-31T10:03:13.500Z,3
2022-12-31T10:04:13.369Z,2
2022-12-31T10:05:13.381Z,3
2022-12-31T10:06:13.395Z,2
2022-12-31T10:07:13.390Z,2
2022-12-31T10:08:13.407Z,2
2022-12-31T10:09:13.381Z,3
2022-12-31T10:10:13.374Z,3
2022-12-31T10:11:13.724Z,1
2022-12-31T10:12:13.383Z,2
2022-12-31T10:13:13.410Z,2
2022-12-31T10:14:13.386Z,2
2022-12-31T10:15:13.380Z,3
2022-12-31T10:16:13.371Z,2
2022-12-31T10:17:13.398Z,3
2022-12-31T10:18:13.399Z,3
2022-12-31T10:19:13.383Z,2
2022-12-31T10:20:23.393Z,3
2022-12-31T10:21:13.377Z,3
2022-12-31T10:22:13.400Z,3
2022-12-31T10:23:13.414Z,3
2022-12-31T10:24:13.374Z,4
2022-12-31T10:25:13.406Z,5
2022-12-31T10:26:13.414Z,4
2022-12-31T10:27:13.388Z,3
2022-12-31T10:28:13.461Z,4
2022-12-31T10:29:13.399Z,4
2022-12-31T10:30:13.394Z,6
2022-12-31T10:31:13.476Z,6
2022-12-31T10:32:13.366Z,3
2022-12-31T10:33:13.411Z,6
2022-12-31T10:34:13.392Z,4
2022-12-31T10:35:13.400Z,4
2022-12-31T10:36:13.388Z,5
2022-12-31T10:38:13.408Z,4
2022-12-31T10:39:16.435Z,4
2022-12-31T10:40:13.395Z,3
2022-12-31T10:41:13.477Z,5
2022-12-31T10:42:13.446Z,7
2022-12-31T10:43:13.404Z,3
2022-12-31T10:44:13.389Z,5
2022-12-31T10:45:13.385Z,4
2022-12-31T10:46:17.673Z,2
2022-12-31T10:47:13.388Z,4
2022-12-31T10:48:13.405Z,5
2022-12-31T10:49:13.439Z,3
2022-12-31T10:50:13.388Z,3
2022-12-31T10:51:13.389Z,4
2022-12-31T10:52:13.380Z,3
2022-12-31T10:53:13.414Z,5
2022-12-31T10:54:13.383Z,3
2022-12-31T10:55:13.417Z,4
2022-12-31T10:56:13.599Z,3
2022-12-31T10:57:13.435Z,4
2022-12-31T10:58:13.426Z,3
2022-12-31T10:59:13.379Z,4
2022-12-31T11:01:13.461Z,4
2022-12-31T11:02:13.567Z,4
2022-12-31T11:03:13.512Z,3
2022-12-31T11:04:13.379Z,4
2022-12-31T11:05:13.401Z,2
2022-12-31T11:06:13.391Z,4
2022-12-31T11:07:13.385Z,3
2022-12-31T11:08:13.399Z,3
2022-12-31T11:09:13.402Z,3
2022-12-31T11:10:13.431Z,3
2022-12-31T11:11:13.437Z,3
2022-12-31T11:12:13.389Z,3
2022-12-31T11:13:13.430Z,3
2022-12-31T11:14:13.408Z,4
2022-12-31T11:15:13.407Z,4
2022-12-31T11:16:13.429Z,4
2022-12-31T11:17:13.403Z,3
2022-12-31T11:18:13.432Z,3
2022-12-31T11:19:13.403Z,3
2022-12-31T11:20:29.509Z,3
2022-12-31T11:21:13.393Z,3
2022-12-31T11:22:13.404Z,1
2022-12-31T11:23:13.437Z,3
2022-12-31T11:24:13.393Z,2
2022-12-31T11:25:13.433Z,4
2022-12-31T11:26:13.396Z,2
2022-12-31T11:27:13.409Z,2
2022-12-31T11:28:13.438Z,4
2022-12-31T11:29:13.397Z,3
2022-12-31T11:30:13.441Z,3
2022-12-31T11:31:13.491Z,3
2022-12-31T11:32:13.384Z,2
2022-12-31T11:33:13.416Z,4
2022-12-31T11:34:13.418Z,3
2022-12-31T11:35:13.417Z,3
2022-12-31T11:36:13.396Z,3
2022-12-31T11:37:13.388Z,2
2022-12-31T11:38:13.420Z,2
2022-12-31T11:39:13.398Z,2
2022-12-31T11:40:13.389Z,3
2022-12-31T11:41:13.384Z,2
2022-12-31T11:42:13.386Z,3
2022-12-31T11:43:13.540Z,2
2022-12-31T11:44:13.411Z,2
2022-12-31T11:45:13.390Z,3
2022-12-31T11:46:13.443Z,3
2022-12-31T11:47:13.398Z,3
2022-12-31T11:48:30.312Z,2
2022-12-31T11:49:13.407Z,4
2022-12-31T11:50:13.545Z,3
2022-12-31T11:51:13.393Z,2
2022-12-31T11:52:17.050Z,3
2022-12-31T11:53:13.414Z,2
2022-12-31T11:54:13.398Z,3
2022-12-31T11:55:13.403Z,3
2022-12-31T11:56:13.404Z,4
2022-12-31T11:57:13.410Z,3
2022-12-31T11:58:13.460Z,2
2022-12-31T11:59:18.877Z,2
2022-12-31T12:00:13.532Z,1
2022-12-31T12:01:13.472Z,6
2022-12-31T12:02:13.401Z,3
2022-12-31T12:03:13.459Z,3
2022-12-31T12:04:13.522Z,3
2022-12-31T12:05:13.417Z,3
2022-12-31T12:06:13.425Z,4
2022-12-31T12:07:13.410Z,4
2022-12-31T12:08:13.415Z,2
2022-12-31T12:09:13.412Z,3
2022-12-31T12:10:13.466Z,3
2022-12-31T12:11:13.562Z,2
2022-12-31T12:12:13.416Z,3
2022-12-31T12:13:13.461Z,3
2022-12-31T12:14:13.411Z,3
2022-12-31T12:15:13.402Z,3
2022-12-31T12:16:13.440Z,2
2022-12-31T12:17:13.394Z,3
2022-12-31T12:18:13.425Z,3
2022-12-31T12:19:13.441Z,2
2022-12-31T12:20:35.508Z,3
2022-12-31T12:21:13.429Z,2
2022-12-31T12:22:13.416Z,4
2022-12-31T12:23:13.429Z,4
2022-12-31T12:24:13.406Z,3
2022-12-31T12:25:13.388Z,5
2022-12-31T12:26:13.431Z,3
2022-12-31T12:27:13.413Z,2
2022-12-31T12:28:13.391Z,2
2022-12-31T12:29:13.415Z,2
2022-12-31T12:30:13.417Z,3
2022-12-31T12:31:13.493Z,1
2022-12-31T12:32:13.398Z,3
2022-12-31T12:33:13.408Z,2
2022-12-31T12:34:13.447Z,2
2022-12-31T12:35:13.547Z,4
2022-12-31T12:36:13.400Z,3
2022-12-31T12:37:13.428Z,3
2022-12-31T12:38:13.403Z,4
2022-12-31T12:39:13.425Z,4
2022-12-31T12:40:13.404Z,5
2022-12-31T12:41:13.406Z,4
2022-12-31T12:42:13.406Z,3
2022-12-31T12:43:13.403Z,3
2022-12-31T12:44:13.429Z,2
2022-12-31T12:45:13.887Z,4
2022-12-31T12:46:13.429Z,1
2022-12-31T12:47:13.482Z,3
2022-12-31T12:48:13.398Z,6
2022-12-31T12:49:13.502Z,3
2022-12-31T12:50:13.488Z,3
2022-12-31T12:51:13.446Z,2
2022-12-31T12:52:13.412Z,2
2022-12-31T12:53:13.398Z,3
2022-12-31T12:54:13.421Z,1
2022-12-31T12:55:13.416Z,2
2022-12-31T12:56:13.569Z,2
2022-12-31T12:57:13.401Z,3
2022-12-31T12:58:18.594Z,2
2022-12-31T12:59:13.421Z,3
2022-12-31T13:00:13.458Z,2
2022-12-31T13:01:13.473Z,3
2022-12-31T13:02:13.589Z,3
2022-12-31T13:03:13.405Z,4
2022-12-31T13:04:39.637Z,2
2022-12-31T13:05:13.529Z,3
2022-12-31T13:06:13.423Z,3
2022-12-31T13:07:13.426Z,3
2022-12-31T13:08:13.412Z,2
2022-12-31T13:09:13.401Z,3
2022-12-31T13:10:13.418Z,2
2022-12-31T13:11:13.410Z,2
2022-12-31T13:12:13.528Z,2
2022-12-31T13:13:23.815Z,3
2022-12-31T13:14:13.421Z,3
2022-12-31T13:15:13.423Z,2
2022-12-31T13:16:13.450Z,2
2022-12-31T13:17:13.622Z,3
2022-12-31T13:19:13.462Z,4
2022-12-31T13:21:13.415Z,2
2022-12-31T13:22:13.407Z,3
2022-12-31T13:23:13.432Z,1
2022-12-31T13:24:13.410Z,3
2022-12-31T13:25:13.422Z,3
2022-12-31T13:26:13.419Z,2
2022-12-31T13:27:13.422Z,2
2022-12-31T13:28:13.438Z,2
2022-12-31T13:29:13.421Z,3
2022-12-31T13:30:13.409Z,3
2022-12-31T13:31:13.493Z,3
2022-12-31T13:32:13.417Z,2
2022-12-31T13:33:13.408Z,3
2022-12-31T13:34:13.451Z,6
2022-12-31T13:35:13.424Z,3
2022-12-31T13:36:13.427Z,1
2022-12-31T13:37:13.430Z,3
2022-12-31T13:38:13.409Z,3
2022-12-31T13:39:13.412Z,2
2022-12-31T13:40:13.430Z,3
2022-12-31T13:41:13.424Z,3
2022-12-31T13:42:13.459Z,2
2022-12-31T13:43:13.404Z,3
2022-12-31T13:44:13.441Z,2
2022-12-31T13:45:13.421Z,3
2022-12-31T13:46:13.458Z,3
2022-12-31T13:47:13.437Z,3
2022-12-31T13:48:13.452Z,5
2022-12-31T13:49:13.482Z,2
2022-12-31T13:50:14.735Z,4
2022-12-31T13:51:13.417Z,3
2022-12-31T13:52:13.420Z,3
2022-12-31T13:53:13.409Z,3
2022-12-31T13:54:13.419Z,2
2022-12-31T13:55:13.421Z,3
2022-12-31T13:56:13.410Z,4
2022-12-31T13:57:13.448Z,2
2022-12-31T13:58:13.439Z,4
2022-12-31T13:59:13.481Z,2
2022-12-31T14:00:13.436Z,2
2022-12-31T14:01:13.559Z,2
2022-12-31T14:02:13.634Z,3
2022-12-31T14:03:13.544Z,2
2022-12-31T14:04:13.455Z,4
2022-12-31T14:05:13.452Z,3
2022-12-31T14:06:13.418Z,2
2022-12-31T14:07:13.424Z,2
2022-12-31T14:08:13.488Z,2
2022-12-31T14:09:13.442Z,4
2022-12-31T14:10:13.489Z,3
2022-12-31T14:11:13.415Z,3
2022-12-31T14:12:13.450Z,2
2022-12-31T14:13:13.423Z,3
2022-12-31T14:14:13.439Z,2
2022-12-31T14:15:13.420Z,1
2022-12-31T14:16:13.510Z,1
2022-12-31T14:17:13.417Z,3
2022-12-31T14:18:13.440Z,4
2022-12-31T14:19:13.470Z,2
2022-12-31T14:20:13.429Z,2
2022-12-31T14:21:13.412Z,2
2022-12-31T14:22:13.437Z,2
2022-12-31T14:23:13.453Z,3
2022-12-31T14:24:13.448Z,3
2022-12-31T14:25:13.427Z,2
2022-12-31T14:26:13.799Z,3
2022-12-31T14:27:13.428Z,3
2022-12-31T14:28:13.424Z,2
2022-12-31T14:29:13.437Z,3
2022-12-31T14:30:13.434Z,3
2022-12-31T14:31:13.445Z,2
2022-12-31T14:32:13.445Z,2
2022-12-31T14:33:13.449Z,2
2022-12-31T14:34:13.460Z,2
2022-12-31T14:35:13.424Z,3
2022-12-31T14:37:13.436Z,2
2022-12-31T14:38:13.426Z,4
2022-12-31T14:39:13.474Z,3
2022-12-31T14:40:13.426Z,3
2022-12-31T14:41:13.434Z,3
2022-12-31T14:42:13.434Z,2
2022-12-31T14:43:13.455Z,3
2022-12-31T14:44:13.563Z,2
2022-12-31T14:45:13.431Z,4
2022-12-31T14:46:13.487Z,2
2022-12-31T14:47:13.456Z,3
2022-12-31T14:48:17.105Z,3
2022-12-31T14:49:13.551Z,2
2022-12-31T14:50:13.454Z,3
2022-12-31T14:51:13.424Z,3
2022-12-31T14:52:13.427Z,3
2022-12-31T14:53:13.428Z,3
2022-12-31T14:54:13.518Z,3
2022-12-31T14:55:13.432Z,3
2022-12-31T14:56:13.427Z,3
2022-12-31T14:57:13.439Z,3
2022-12-31T14:58:29.304Z,2
2022-12-31T14:59:13.447Z,3